sensor_id;sensor_type;location;lat;lon;timestamp;pressure;altitude;pressure_sealevel;temperature;humidity
68301;BME280;55146;47.468;18.806;2023-01-26T00:01:32;100850.53;;;3.17;94.21
68301;BME280;55146;47.468;18.806;2023-01-26T00:03:58;100842.38;;;3.17;94.13
68301;BME280;55146;47.468;18.806;2023-01-26T00:06:24;100840.50;;;3.17;94.19
68301;BME280;55146;47.468;18.806;2023-01-26T00:08:52;100837.78;;;3.17;94.20
68301;BME280;55146;47.468;18.806;2023-01-26T00:11:20;100831.53;;;3.17;94.23
68301;BME280;55146;47.468;18.806;2023-01-26T00:13:49;100843.03;;;3.19;94.24
68301;BME280;55146;47.468;18.806;2023-01-26T00:16:15;100835.06;;;3.17;94.28
68301;BME280;55146;47.468;18.806;2023-01-26T00:18:41;100834.03;;;3.12;94.39
68301;BME280;55146;47.468;18.806;2023-01-26T00:21:09;100828.59;;;3.12;94.49
68301;BME280;55146;47.468;18.806;2023-01-26T00:23:35;100833.84;;;3.13;94.45
68301;BME280;55146;47.468;18.806;2023-01-26T00:26:01;100830.88;;;3.15;94.34
68301;BME280;55146;47.468;18.806;2023-01-26T00:28:29;100831.72;;;3.15;94.25
68301;BME280;55146;47.468;18.806;2023-01-26T00:31:02;100826.72;;;3.12;94.33
68301;BME280;55146;47.468;18.806;2023-01-26T00:33:28;100825.22;;;3.10;94.42
68301;BME280;55146;47.468;18.806;2023-01-26T00:35:54;100821.69;;;3.09;94.42
68301;BME280;55146;47.468;18.806;2023-01-26T00:38:19;100827.13;;;3.09;94.30
68301;BME280;55146;47.468;18.806;2023-01-26T00:40:44;100825.66;;;3.07;94.36
68301;BME280;55146;47.468;18.806;2023-01-26T00:43:10;100822.53;;;3.10;94.39
68301;BME280;55146;47.468;18.806;2023-01-26T00:45:35;100824.63;;;3.08;94.60
68301;BME280;55146;47.468;18.806;2023-01-26T00:48:00;100822.75;;;3.02;94.72
68301;BME280;55146;47.468;18.806;2023-01-26T00:50:26;100830.25;;;3.06;94.59
68301;BME280;55146;47.468;18.806;2023-01-26T00:52:51;100821.28;;;3.06;94.58
68301;BME280;55146;47.468;18.806;2023-01-26T00:55:18;100821.47;;;3.04;94.74
68301;BME280;55146;47.468;18.806;2023-01-26T00:57:43;100823.16;;;3.05;94.69
68301;BME280;55146;47.468;18.806;2023-01-26T01:00:09;100817.06;;;3.03;94.72
68301;BME280;55146;47.468;18.806;2023-01-26T01:02:41;100814.78;;;3.07;94.69
68301;BME280;55146;47.468;18.806;2023-01-26T01:05:06;100811.03;;;3.08;94.71
68301;BME280;55146;47.468;18.806;2023-01-26T01:07:32;100810.19;;;3.07;94.68
68301;BME280;55146;47.468;18.806;2023-01-26T01:09:57;100807.69;;;3.06;94.56
68301;BME280;55146;47.468;18.806;2023-01-26T01:12:25;100804.31;;;3.04;94.72
68301;BME280;55146;47.468;18.806;2023-01-26T01:14:50;100805.16;;;3.04;94.82
68301;BME280;55146;47.468;18.806;2023-01-26T01:17:16;100808.53;;;3.06;94.87
68301;BME280;55146;47.468;18.806;2023-01-26T01:19:41;100802.66;;;3.09;94.83
68301;BME280;55146;47.468;18.806;2023-01-26T01:22:06;100805.16;;;3.04;95.03
68301;BME280;55146;47.468;18.806;2023-01-26T01:24:32;100805.81;;;3.06;95.18
68301;BME280;55146;47.468;18.806;2023-01-26T01:26:59;100802.25;;;3.06;95.19
68301;BME280;55146;47.468;18.806;2023-01-26T01:29:25;100804.31;;;3.04;95.04
68301;BME280;55146;47.468;18.806;2023-01-26T01:31:50;100794.72;;;3.01;94.92
68301;BME280;55146;47.468;18.806;2023-01-26T01:34:15;100796.81;;;3.06;94.84
68301;BME280;55146;47.468;18.806;2023-01-26T01:36:41;100794.28;;;3.04;94.85
68301;BME280;55146;47.468;18.806;2023-01-26T01:39:06;100794.72;;;3.08;94.67
68301;BME280;55146;47.468;18.806;2023-01-26T01:41:31;100789.50;;;3.06;94.64
68301;BME280;55146;47.468;18.806;2023-01-26T01:44:18;100789.50;;;3.06;94.65
68301;BME280;55146;47.468;18.806;2023-01-26T01:47:21;100787.41;;;3.08;94.68
68301;BME280;55146;47.468;18.806;2023-01-26T01:49:51;100778.63;;;3.06;94.55
68301;BME280;55146;47.468;18.806;2023-01-26T01:52:29;100786.78;;;3.06;94.58
68301;BME280;55146;47.468;18.806;2023-01-26T01:57:28;100777.38;;;3.02;94.83
68301;BME280;55146;47.468;18.806;2023-01-26T02:00:05;100771.50;;;3.05;94.66
68301;BME280;55146;47.468;18.806;2023-01-26T02:02:31;100763.34;;;3.05;94.64
68301;BME280;55146;47.468;18.806;2023-01-26T02:05:03;100767.31;;;3.03;94.67
68301;BME280;55146;47.468;18.806;2023-01-26T02:07:31;100758.97;;;2.98;94.78
68301;BME280;55146;47.468;18.806;2023-01-26T02:09:58;100749.97;;;2.97;94.83
68301;BME280;55146;47.468;18.806;2023-01-26T02:12:56;100754.38;;;2.98;94.87
68301;BME280;55146;47.468;18.806;2023-01-26T02:15:23;100753.72;;;3.03;94.73
68301;BME280;55146;47.468;18.806;2023-01-26T02:17:52;100744.78;;;3.02;94.86
68301;BME280;55146;47.468;18.806;2023-01-26T02:20:32;100742.47;;;2.99;94.92
68301;BME280;55146;47.468;18.806;2023-01-26T02:25:39;100740.56;;;3.00;94.86
68301;BME280;55146;47.468;18.806;2023-01-26T02:28:07;100734.09;;;3.01;94.81
68301;BME280;55146;47.468;18.806;2023-01-26T02:30:33;100744.12;;;3.00;95.02
68301;BME280;55146;47.468;18.806;2023-01-26T02:32:58;100731.78;;;2.98;95.00
68301;BME280;55146;47.468;18.806;2023-01-26T02:35:24;100729.50;;;2.95;95.07
68301;BME280;55146;47.468;18.806;2023-01-26T02:37:49;100722.19;;;2.95;95.25
68301;BME280;55146;47.468;18.806;2023-01-26T02:42:43;100716.31;;;2.98;95.03
68301;BME280;55146;47.468;18.806;2023-01-26T02:45:11;100718.84;;;3.00;95.01
68301;BME280;55146;47.468;18.806;2023-01-26T02:47:38;100710.06;;;2.98;95.01
68301;BME280;55146;47.468;18.806;2023-01-26T02:50:06;100707.56;;;2.96;95.22
68301;BME280;55146;47.468;18.806;2023-01-26T02:52:31;100703.78;;;2.97;95.08
68301;BME280;55146;47.468;18.806;2023-01-26T02:54:57;100702.75;;;2.98;94.97
68301;BME280;55146;47.468;18.806;2023-01-26T02:57:42;100694.19;;;2.95;94.95
68301;BME280;55146;47.468;18.806;2023-01-26T03:02:43;100687.28;;;2.99;94.67
68301;BME280;55146;47.468;18.806;2023-01-26T03:05:27;100682.88;;;2.98;94.82
68301;BME280;55146;47.468;18.806;2023-01-26T03:07:53;100681.63;;;3.00;94.80
68301;BME280;55146;47.468;18.806;2023-01-26T03:10:19;100685.84;;;2.96;94.77
68301;BME280;55146;47.468;18.806;2023-01-26T03:12:45;100682.47;;;2.94;94.79
68301;BME280;55146;47.468;18.806;2023-01-26T03:15:11;100679.31;;;2.91;95.17
68301;BME280;55146;47.468;18.806;2023-01-26T03:18:14;100679.31;;;2.91;95.36
68301;BME280;55146;47.468;18.806;2023-01-26T03:21:00;100678.28;;;2.92;95.27
68301;BME280;55146;47.468;18.806;2023-01-26T03:23:46;100675.78;;;2.90;95.38
68301;BME280;55146;47.468;18.806;2023-01-26T03:26:30;100669.09;;;2.93;95.25
68301;BME280;55146;47.468;18.806;2023-01-26T03:29:14;100665.13;;;2.89;95.24
68301;BME280;55146;47.468;18.806;2023-01-26T03:31:40;100656.75;;;2.90;95.19
68301;BME280;55146;47.468;18.806;2023-01-26T03:34:05;100662.41;;;2.95;95.14
68301;BME280;55146;47.468;18.806;2023-01-26T03:36:31;100657.81;;;2.96;94.96
68301;BME280;55146;47.468;18.806;2023-01-26T03:38:56;100664.91;;;2.97;95.00
68301;BME280;55146;47.468;18.806;2023-01-26T03:41:21;100651.56;;;2.95;94.86
68301;BME280;55146;47.468;18.806;2023-01-26T03:44:05;100644.84;;;2.91;94.97
68301;BME280;55146;47.468;18.806;2023-01-26T03:46:50;100644.00;;;2.91;95.05
68301;BME280;55146;47.468;18.806;2023-01-26T03:49:33;100646.53;;;2.92;94.79
68301;BME280;55146;47.468;18.806;2023-01-26T03:52:17;100640.25;;;2.92;94.86
68301;BME280;55146;47.468;18.806;2023-01-26T03:55:01;100641.94;;;2.93;94.82
68301;BME280;55146;47.468;18.806;2023-01-26T03:57:46;100641.94;;;2.93;94.78
68301;BME280;55146;47.468;18.806;2023-01-26T04:00:12;100633.78;;;2.93;94.78
68301;BME280;55146;47.468;18.806;2023-01-26T04:02:39;100631.50;;;2.90;95.00
68301;BME280;55146;47.468;18.806;2023-01-26T04:05:23;100636.94;;;2.90;95.08
68301;BME280;55146;47.468;18.806;2023-01-26T04:08:08;100637.13;;;2.88;94.95
68301;BME280;55146;47.468;18.806;2023-01-26T04:10:50;100627.31;;;2.87;94.97
68301;BME280;55146;47.468;18.806;2023-01-26T04:13:20;100633.78;;;2.86;95.28
68301;BME280;55146;47.468;18.806;2023-01-26T04:16:05;100627.50;;;2.85;95.36
68301;BME280;55146;47.468;18.806;2023-01-26T04:18:49;100623.97;;;2.85;95.21
68301;BME280;55146;47.468;18.806;2023-01-26T04:21:33;100625.22;;;2.82;95.09
68301;BME280;55146;47.468;18.806;2023-01-26T04:24:01;100620.41;;;2.84;94.98
68301;BME280;55146;47.468;18.806;2023-01-26T04:26:30;100613.94;;;2.85;94.97
68301;BME280;55146;47.468;18.806;2023-01-26T04:29:03;100620.63;;;2.83;95.24
68301;BME280;55146;47.468;18.806;2023-01-26T04:31:29;100613.72;;;2.87;95.08
68301;BME280;55146;47.468;18.806;2023-01-26T04:33:55;100624.38;;;2.89;94.98
68301;BME280;55146;47.468;18.806;2023-01-26T04:36:20;100622.50;;;2.89;94.89
68301;BME280;55146;47.468;18.806;2023-01-26T04:38:46;100610.37;;;2.85;95.04
68301;BME280;55146;47.468;18.806;2023-01-26T04:41:11;100605.56;;;2.87;94.97
68301;BME280;55146;47.468;18.806;2023-01-26T04:43:36;100614.56;;;2.88;94.77
68301;BME280;55146;47.468;18.806;2023-01-26T04:46:06;100607.66;;;2.85;94.69
68301;BME280;55146;47.468;18.806;2023-01-26T04:48:33;100607.88;;;2.83;94.93
68301;BME280;55146;47.468;18.806;2023-01-26T04:51:03;100612.25;;;2.84;94.90
68301;BME280;55146;47.468;18.806;2023-01-26T04:53:30;100609.78;;;2.83;95.05
68301;BME280;55146;47.468;18.806;2023-01-26T04:55:56;100604.94;;;2.85;94.94
68301;BME280;55146;47.468;18.806;2023-01-26T04:58:22;100603.91;;;2.86;94.87
68301;BME280;55146;47.468;18.806;2023-01-26T05:00:55;100605.97;;;2.84;94.89
68301;BME280;55146;47.468;18.806;2023-01-26T05:03:22;100606.22;;;2.82;94.79
68301;BME280;55146;47.468;18.806;2023-01-26T05:05:50;100603.50;;;2.82;94.88
68301;BME280;55146;47.468;18.806;2023-01-26T05:08:16;100601.81;;;2.81;94.99
68301;BME280;55146;47.468;18.806;2023-01-26T05:10:41;100609.34;;;2.79;95.01
68301;BME280;55146;47.468;18.806;2023-01-26T05:13:07;100608.75;;;2.77;94.92
68301;BME280;55146;47.468;18.806;2023-01-26T05:15:33;100605.78;;;2.79;94.93
68301;BME280;55146;47.468;18.806;2023-01-26T05:17:59;100599.94;;;2.82;94.80
68301;BME280;55146;47.468;18.806;2023-01-26T05:20:25;100602.87;;;2.80;95.02
68301;BME280;55146;47.468;18.806;2023-01-26T05:22:50;100603.50;;;2.82;94.99
68301;BME280;55146;47.468;18.806;2023-01-26T05:25:16;100601.81;;;2.81;94.94
68301;BME280;55146;47.468;18.806;2023-01-26T05:27:41;100599.09;;;2.81;94.88
68301;BME280;55146;47.468;18.806;2023-01-26T05:30:07;100599.50;;;2.78;94.84
68301;BME280;55146;47.468;18.806;2023-01-26T05:32:32;100596.19;;;2.76;95.01
68301;BME280;55146;47.468;18.806;2023-01-26T05:34:58;100602.66;;;2.75;95.33
68301;BME280;55146;47.468;18.806;2023-01-26T05:37:27;100603.50;;;2.63;95.61
68301;BME280;55146;47.468;18.806;2023-01-26T05:39:53;100602.69;;;2.62;95.86
68301;BME280;55146;47.468;18.806;2023-01-26T05:42:18;100599.75;;;2.64;96.20
68301;BME280;55146;47.468;18.806;2023-01-26T05:44:44;100601.00;;;2.68;95.99
68301;BME280;55146;47.468;18.806;2023-01-26T05:47:09;100605.19;;;2.70;95.92
68301;BME280;55146;47.468;18.806;2023-01-26T05:49:35;100608.50;;;2.72;95.84
68301;BME280;55146;47.468;18.806;2023-01-26T05:52:10;100606.03;;;2.71;95.62
68301;BME280;55146;47.468;18.806;2023-01-26T05:54:36;100605.78;;;2.72;95.46
68301;BME280;55146;47.468;18.806;2023-01-26T05:57:02;100600.78;;;2.69;95.44
68301;BME280;55146;47.468;18.806;2023-01-26T05:59:27;100603.31;;;2.71;95.39
68301;BME280;55146;47.468;18.806;2023-01-26T06:01:53;100603.31;;;2.71;95.50
68301;BME280;55146;47.468;18.806;2023-01-26T06:04:19;100604.56;;;2.68;95.44
68301;BME280;55146;47.468;18.806;2023-01-26T06:06:44;100609.97;;;2.68;95.26
68301;BME280;55146;47.468;18.806;2023-01-26T06:09:10;100610.37;;;2.72;95.06
68301;BME280;55146;47.468;18.806;2023-01-26T06:11:35;100612.91;;;2.73;95.20
68301;BME280;55146;47.468;18.806;2023-01-26T06:14:01;100612.91;;;2.73;95.08
68301;BME280;55146;47.468;18.806;2023-01-26T06:16:26;100607.06;;;2.76;94.87
68301;BME280;55146;47.468;18.806;2023-01-26T06:18:52;100609.78;;;2.76;94.65
68301;BME280;55146;47.468;18.806;2023-01-26T06:21:17;100598.91;;;2.76;94.48
68301;BME280;55146;47.468;18.806;2023-01-26T06:23:43;100605.78;;;2.79;94.32
68301;BME280;55146;47.468;18.806;2023-01-26T06:26:09;100608.50;;;2.79;94.05
68301;BME280;55146;47.468;18.806;2023-01-26T06:28:34;100607.06;;;2.76;94.19
68301;BME280;55146;47.468;18.806;2023-01-26T06:31:05;100604.94;;;2.78;94.28
68301;BME280;55146;47.468;18.806;2023-01-26T06:33:32;100604.94;;;2.78;94.32
68301;BME280;55146;47.468;18.806;2023-01-26T06:36:09;100601.41;;;2.78;94.30
68301;BME280;55146;47.468;18.806;2023-01-26T06:38:35;100604.09;;;2.78;94.17
68301;BME280;55146;47.468;18.806;2023-01-26T06:41:01;100597.63;;;2.79;94.26
68301;BME280;55146;47.468;18.806;2023-01-26T06:43:28;100597.63;;;2.79;94.47
68301;BME280;55146;47.468;18.806;2023-01-26T06:59:21;100584.94;;;3.37;91.61
68301;BME280;55146;47.468;18.806;2023-01-26T07:01:47;100584.94;;;3.37;91.61
68301;BME280;55146;47.468;18.806;2023-01-26T07:04:13;100593.69;;;2.81;93.50
68301;BME280;55146;47.468;18.806;2023-01-26T07:06:39;100586.56;;;2.80;93.46
68301;BME280;55146;47.468;18.806;2023-01-26T07:09:04;100594.06;;;2.85;93.12
68301;BME280;55146;47.468;18.806;2023-01-26T07:11:30;100592.63;;;2.82;93.28
68301;BME280;55146;47.468;18.806;2023-01-26T07:13:56;100592.19;;;2.85;93.07
68301;BME280;55146;47.468;18.806;2023-01-26T07:16:22;100585.31;;;2.83;92.66
68301;BME280;55146;47.468;18.806;2023-01-26T07:18:47;100586.34;;;2.89;92.36
68301;BME280;55146;47.468;18.806;2023-01-26T07:21:15;100578.81;;;2.91;92.02
68301;BME280;55146;47.468;18.806;2023-01-26T07:23:42;100585.06;;;2.91;91.66
68301;BME280;55146;47.468;18.806;2023-01-26T07:26:08;100584.22;;;2.91;91.79
68301;BME280;55146;47.468;18.806;2023-01-26T07:28:33;100576.91;;;2.91;91.66
68301;BME280;55146;47.468;18.806;2023-01-26T07:31:00;100576.72;;;2.93;91.40
68301;BME280;55146;47.468;18.806;2023-01-26T07:33:30;100572.75;;;2.95;91.22
68301;BME280;55146;47.468;18.806;2023-01-26T07:35:56;100572.97;;;2.94;90.91
68301;BME280;55146;47.468;18.806;2023-01-26T07:38:21;100567.72;;;2.92;90.85
68301;BME280;55146;47.468;18.806;2023-01-26T07:40:47;100575.87;;;2.92;90.82
68301;BME280;55146;47.468;18.806;2023-01-26T07:43:13;100568.38;;;2.94;90.33
68301;BME280;55146;47.468;18.806;2023-01-26T07:45:47;100572.53;;;2.97;90.14
68301;BME280;55146;47.468;18.806;2023-01-26T07:48:15;100566.28;;;2.96;90.08
68301;BME280;55146;47.468;18.806;2023-01-26T07:50:41;100562.47;;;2.97;90.26
68301;BME280;55146;47.468;18.806;2023-01-26T07:53:06;100565.00;;;2.99;90.41
68301;BME280;55146;47.468;18.806;2023-01-26T07:55:34;100568.13;;;3.02;90.53
68301;BME280;55146;47.468;18.806;2023-01-26T07:57:59;100568.56;;;2.99;90.66
68301;BME280;55146;47.468;18.806;2023-01-26T08:00:24;100568.34;;;3.01;90.42
68301;BME280;55146;47.468;18.806;2023-01-26T08:02:50;100569.59;;;2.98;90.22
68301;BME280;55146;47.468;18.806;2023-01-26T08:05:15;100576.28;;;3.02;90.16
68301;BME280;55146;47.468;18.806;2023-01-26T08:07:41;100568.56;;;2.99;89.52
68301;BME280;55146;47.468;18.806;2023-01-26T08:10:06;100572.50;;;3.03;89.50
68301;BME280;55146;47.468;18.806;2023-01-26T08:12:34;100575.47;;;3.02;89.29
68301;BME280;55146;47.468;18.806;2023-01-26T08:15:00;100570.06;;;2.89;85.65
68301;BME280;55146;47.468;18.806;2023-01-26T08:17:27;100574.44;;;2.90;86.69
68301;BME280;55146;47.468;18.806;2023-01-26T08:19:53;100573.16;;;2.92;86.83
68301;BME280;55146;47.468;18.806;2023-01-26T08:22:18;100579.63;;;2.98;87.74
68301;BME280;55146;47.468;18.806;2023-01-26T08:24:44;100578.78;;;3.04;88.19
68301;BME280;55146;47.468;18.806;2023-01-26T08:27:09;100568.13;;;3.02;87.69
68301;BME280;55146;47.468;18.806;2023-01-26T08:29:34;100570.84;;;3.02;87.73
68301;BME280;55146;47.468;18.806;2023-01-26T08:32:00;100568.75;;;3.04;87.86
68301;BME280;55146;47.468;18.806;2023-01-26T08:34:25;100574.38;;;3.09;88.17
68301;BME280;55146;47.468;18.806;2023-01-26T08:36:51;100570.59;;;3.10;89.10
68301;BME280;55146;47.468;18.806;2023-01-26T08:39:16;100570.41;;;3.12;89.32
68301;BME280;55146;47.468;18.806;2023-01-26T08:41:41;100573.31;;;3.10;88.78
68301;BME280;55146;47.468;18.806;2023-01-26T08:44:08;100575.19;;;3.10;88.37
68301;BME280;55146;47.468;18.806;2023-01-26T08:46:34;100577.31;;;3.14;87.56
68301;BME280;55146;47.468;18.806;2023-01-26T08:48:59;100573.09;;;3.18;86.85
68301;BME280;55146;47.468;18.806;2023-01-26T08:51:24;100576.03;;;3.17;84.89
68301;BME280;55146;47.468;18.806;2023-01-26T08:53:50;100567.66;;;3.18;84.54
68301;BME280;55146;47.468;18.806;2023-01-26T08:56:18;100567.84;;;3.23;84.10
68301;BME280;55146;47.468;18.806;2023-01-26T08:58:44;100564.50;;;3.21;83.45
68301;BME280;55146;47.468;18.806;2023-01-26T09:01:12;100570.97;;;3.27;83.38
68301;BME280;55146;47.468;18.806;2023-01-26T09:03:38;100572.63;;;3.28;83.25
68301;BME280;55146;47.468;18.806;2023-01-26T09:06:05;100572.63;;;3.28;83.21
68301;BME280;55146;47.468;18.806;2023-01-26T09:08:31;100571.38;;;3.31;83.25
68301;BME280;55146;47.468;18.806;2023-01-26T09:10:56;100571.56;;;3.36;83.62
68301;BME280;55146;47.468;18.806;2023-01-26T09:13:22;100577.19;;;3.41;83.39
68301;BME280;55146;47.468;18.806;2023-01-26T09:15:48;100570.91;;;3.40;83.23
68301;BME280;55146;47.468;18.806;2023-01-26T09:18:13;100567.47;;;3.13;80.44
68301;BME280;55146;47.468;18.806;2023-01-26T09:20:39;100564.16;;;2.98;81.03
68301;BME280;55146;47.468;18.806;2023-01-26T09:23:05;100566.22;;;3.09;81.94
68301;BME280;55146;47.468;18.806;2023-01-26T09:25:30;100570.78;;;3.15;81.39
68301;BME280;55146;47.468;18.806;2023-01-26T09:27:56;100565.59;;;3.14;79.85
68301;BME280;55146;47.468;18.806;2023-01-26T09:30:21;100564.12;;;3.05;79.23
68301;BME280;55146;47.468;18.806;2023-01-26T09:32:49;100560.62;;;2.91;78.62
68301;BME280;55146;47.468;18.806;2023-01-26T09:35:15;100568.84;;;2.71;78.45
68301;BME280;55146;47.468;18.806;2023-01-26T09:37:43;100569.25;;;2.68;79.36
68301;BME280;55146;47.468;18.806;2023-01-26T09:40:39;100559.41;;;2.80;80.12
68301;BME280;55146;47.468;18.806;2023-01-26T09:46:07;100555.63;;;2.88;78.85
68301;BME280;55146;47.468;18.806;2023-01-26T09:49:02;100551.03;;;2.95;79.51
68301;BME280;55146;47.468;18.806;2023-01-26T09:51:37;100548.50;;;3.00;79.47
68301;BME280;55146;47.468;18.806;2023-01-26T09:56:47;100544.31;;;2.98;78.79
68301;BME280;55146;47.468;18.806;2023-01-26T09:59:17;100543.06;;;3.00;79.06
68301;BME280;55146;47.468;18.806;2023-01-26T10:01:53;100541.16;;;3.07;79.43
68301;BME280;55146;47.468;18.806;2023-01-26T10:04:36;100534.19;;;3.18;79.08
68301;BME280;55146;47.468;18.806;2023-01-26T10:07:11;100524.34;;;3.23;78.47
68301;BME280;55146;47.468;18.806;2023-01-26T10:09:39;100524.13;;;3.25;78.96
68301;BME280;55146;47.468;18.806;2023-01-26T10:14:57;100511.22;;;3.14;77.36
68301;BME280;55146;47.468;18.806;2023-01-26T10:17:39;100516.44;;;3.15;77.94
68301;BME280;55146;47.468;18.806;2023-01-26T10:20:24;100508.06;;;3.17;78.21
68301;BME280;55146;47.468;18.806;2023-01-26T10:22:54;100501.94;;;3.28;78.59
68301;BME280;55146;47.468;18.806;2023-01-26T10:25:36;100502.16;;;3.33;79.61
68301;BME280;55146;47.468;18.806;2023-01-26T10:30:42;100491.37;;;3.51;79.05
68301;BME280;55146;47.468;18.806;2023-01-26T10:33:27;100491.75;;;3.55;77.40
68301;BME280;55146;47.468;18.806;2023-01-26T10:35:54;100488.66;;;3.51;77.81
68301;BME280;55146;47.468;18.806;2023-01-26T10:41:02;100476.06;;;3.57;77.80
68301;BME280;55146;47.468;18.806;2023-01-26T10:43:30;100467.19;;;3.68;77.33
68301;BME280;55146;47.468;18.806;2023-01-26T10:45:59;100474.53;;;3.67;77.06
68301;BME280;55146;47.468;18.806;2023-01-26T10:48:27;100478.72;;;3.70;76.39
68301;BME280;55146;47.468;18.806;2023-01-26T10:50:53;100472.59;;;3.75;77.02
68301;BME280;55146;47.468;18.806;2023-01-26T10:56:14;100467.28;;;3.55;76.01
68301;BME280;55146;47.468;18.806;2023-01-26T11:01:07;100469.38;;;3.53;75.25
68301;BME280;55146;47.468;18.806;2023-01-26T11:03:39;100454.91;;;3.59;75.59
68301;BME280;55146;47.468;18.806;2023-01-26T11:06:14;100457.63;;;3.59;75.39
68301;BME280;55146;47.468;18.806;2023-01-26T11:08:39;100450.25;;;3.66;75.67
68301;BME280;55146;47.468;18.806;2023-01-26T11:11:06;100448.31;;;3.73;75.89
68301;BME280;55146;47.468;18.806;2023-01-26T11:13:36;100450.16;;;3.79;76.70
68301;BME280;55146;47.468;18.806;2023-01-26T11:16:13;100446.59;;;3.79;76.36
68301;BME280;55146;47.468;18.806;2023-01-26T11:21:29;100443.00;;;3.85;76.80
68301;BME280;55146;47.468;18.806;2023-01-26T11:27:03;100439.84;;;3.88;75.37
68301;BME280;55146;47.468;18.806;2023-01-26T11:46:19;100419.56;;;3.84;73.73
68301;BME280;55146;47.468;18.806;2023-01-26T11:58:13;100399.81;;;3.70;74.74
68301;BME280;55146;47.468;18.806;2023-01-26T12:05:55;100384.28;;;3.71;74.23
68301;BME280;55146;47.468;18.806;2023-01-26T12:11:19;100376.28;;;3.57;73.56
68301;BME280;55146;47.468;18.806;2023-01-26T12:14:16;100371.25;;;3.54;73.21
68301;BME280;55146;47.468;18.806;2023-01-26T12:17:06;100373.38;;;3.52;74.79
68301;BME280;55146;47.468;18.806;2023-01-26T12:19:48;100361.28;;;3.48;73.86
68301;BME280;55146;47.468;18.806;2023-01-26T12:22:37;100361.28;;;3.48;73.69
68301;BME280;55146;47.468;18.806;2023-01-26T12:27:42;100358.72;;;3.29;74.73
68301;BME280;55146;47.468;18.806;2023-01-26T12:32:44;100365.59;;;3.31;73.75
68301;BME280;55146;47.468;18.806;2023-01-26T12:35:10;100361.16;;;3.37;74.50
68301;BME280;55146;47.468;18.806;2023-01-26T12:38:02;100349.81;;;3.40;73.49
68301;BME280;55146;47.468;18.806;2023-01-26T12:43:54;100351.97;;;3.38;74.48
68301;BME280;55146;47.468;18.806;2023-01-26T12:46:23;100347.56;;;3.37;74.42
68301;BME280;55146;47.468;18.806;2023-01-26T12:48:56;100343.81;;;3.38;75.39
68301;BME280;55146;47.468;18.806;2023-01-26T12:51:26;100344.34;;;3.46;74.84
68301;BME280;55146;47.468;18.806;2023-01-26T12:54:18;100347.91;;;3.47;75.01
68301;BME280;55146;47.468;18.806;2023-01-26T12:56:49;100340.78;;;3.46;74.33
68301;BME280;55146;47.468;18.806;2023-01-26T12:59:26;100341.19;;;3.49;75.29
68301;BME280;55146;47.468;18.806;2023-01-26T13:01:53;100344.97;;;3.48;74.42
68301;BME280;55146;47.468;18.806;2023-01-26T13:04:18;100350.19;;;3.50;75.04
68301;BME280;55146;47.468;18.806;2023-01-26T13:06:44;100347.00;;;3.53;74.70
68301;BME280;55146;47.468;18.806;2023-01-26T13:09:24;100341.25;;;3.43;74.16
68301;BME280;55146;47.468;18.806;2023-01-26T13:11:53;100339.56;;;3.42;75.23
68301;BME280;55146;47.468;18.806;2023-01-26T13:22:36;100337.38;;;3.57;75.27
68301;BME280;55146;47.468;18.806;2023-01-26T13:25:14;100331.94;;;3.57;73.87
68301;BME280;55146;47.468;18.806;2023-01-26T13:30:44;100333.81;;;3.56;74.29
68301;BME280;55146;47.468;18.806;2023-01-26T13:35:37;100327.75;;;3.54;74.44
68301;BME280;55146;47.468;18.806;2023-01-26T13:40:50;100326.25;;;3.58;74.85
68301;BME280;55146;47.468;18.806;2023-01-26T13:43:30;100330.03;;;3.57;73.97
68301;BME280;55146;47.468;18.806;2023-01-26T13:51:11;100333.13;;;3.61;73.40
68301;BME280;55146;47.468;18.806;2023-01-26T13:53:39;100326.84;;;3.60;73.22
68301;BME280;55146;47.468;18.806;2023-01-26T13:56:21;100331.69;;;3.58;74.29
68301;BME280;55146;47.468;18.806;2023-01-26T13:58:47;100323.53;;;3.58;73.93
68301;BME280;55146;47.468;18.806;2023-01-26T14:01:13;100317.88;;;3.60;73.65
68301;BME280;55146;47.468;18.806;2023-01-26T14:03:39;100318.53;;;3.55;73.73
68301;BME280;55146;47.468;18.806;2023-01-26T14:06:14;100316.44;;;3.57;74.07
68301;BME280;55146;47.468;18.806;2023-01-26T14:08:48;100318.09;;;3.58;74.10
68301;BME280;55146;47.468;18.806;2023-01-26T14:11:21;100325.19;;;3.59;74.51
68301;BME280;55146;47.468;18.806;2023-01-26T14:13:51;100325.66;;;3.56;74.91
68301;BME280;55146;47.468;18.806;2023-01-26T14:16:43;100320.06;;;3.51;73.71
68301;BME280;55146;47.468;18.806;2023-01-26T14:19:12;100320.06;;;3.51;73.87
68301;BME280;55146;47.468;18.806;2023-01-26T14:24:15;100329.03;;;3.52;73.37
68301;BME280;55146;47.468;18.806;2023-01-26T14:26:41;100326.97;;;3.47;73.62
68301;BME280;55146;47.468;18.806;2023-01-26T14:29:12;100335.34;;;3.46;73.93
68301;BME280;55146;47.468;18.806;2023-01-26T14:31:42;100334.53;;;3.45;74.21
68301;BME280;55146;47.468;18.806;2023-01-26T14:34:09;100327.19;;;3.46;74.01
68301;BME280;55146;47.468;18.806;2023-01-26T14:36:35;100320.69;;;3.47;74.02
68301;BME280;55146;47.468;18.806;2023-01-26T14:39:15;100332.94;;;3.38;74.12
68301;BME280;55146;47.468;18.806;2023-01-26T14:41:41;100328.75;;;3.35;74.51
68301;BME280;55146;47.468;18.806;2023-01-26T14:44:08;100324.38;;;3.34;74.96
68301;BME280;55146;47.468;18.806;2023-01-26T14:52:24;100314.00;;;3.24;74.57
68301;BME280;55146;47.468;18.806;2023-01-26T14:54:56;100319.59;;;3.30;74.99
68301;BME280;55146;47.468;18.806;2023-01-26T14:57:26;100314.78;;;3.32;75.20
68301;BME280;55146;47.468;18.806;2023-01-26T14:59:58;100321.44;;;3.36;75.25
68301;BME280;55146;47.468;18.806;2023-01-26T15:02:26;100312.22;;;3.37;75.48
68301;BME280;55146;47.468;18.806;2023-01-26T15:07:45;100307.00;;;3.35;76.02